sensor_id;sensor_type;location;lat;lon;timestamp;P1;durP1;ratioP1;P2;durP2;ratioP2
13485;SDS011;6815;59.336;17.998;2023-02-26T00:02:08;1.73;;;1.00;;
13485;SDS011;6815;59.336;17.998;2023-02-26T00:04:34;1.50;;;0.70;;
13485;SDS011;6815;59.336;17.998;2023-02-26T00:07:00;2.83;;;0.80;;
13485;SDS011;6815;59.336;17.998;2023-02-26T00:09:26;1.83;;;0.90;;
13485;SDS011;6815;59.336;17.998;2023-02-26T00:11:51;7.20;;;1.10;;
13485;SDS011;6815;59.336;17.998;2023-02-26T00:14:18;7.07;;;1.33;;
13485;SDS011;6815;59.336;17.998;2023-02-26T00:16:46;1.50;;;0.90;;
13485;SDS011;6815;59.336;17.998;2023-02-26T00:19:33;2.93;;;0.70;;
13485;SDS011;6815;59.336;17.998;2023-02-26T00:21:58;2.30;;;0.93;;
13485;SDS011;6815;59.336;17.998;2023-02-26T00:24:24;1.80;;;0.93;;
13485;SDS011;6815;59.336;17.998;2023-02-26T00:26:50;2.10;;;0.87;;
13485;SDS011;6815;59.336;17.998;2023-02-26T00:29:15;4.37;;;1.10;;
13485;SDS011;6815;59.336;17.998;2023-02-26T00:31:41;3.00;;;1.03;;
13485;SDS011;6815;59.336;17.998;2023-02-26T00:34:09;1.60;;;0.80;;
13485;SDS011;6815;59.336;17.998;2023-02-26T00:36:39;2.67;;;1.10;;
13485;SDS011;6815;59.336;17.998;2023-02-26T00:41:44;1.37;;;0.80;;
13485;SDS011;6815;59.336;17.998;2023-02-26T00:44:10;2.40;;;1.20;;
13485;SDS011;6815;59.336;17.998;2023-02-26T00:52:01;3.10;;;0.80;;
13485;SDS011;6815;59.336;17.998;2023-02-26T00:54:29;3.17;;;0.80;;
13485;SDS011;6815;59.336;17.998;2023-02-26T00:56:56;1.67;;;0.80;;
13485;SDS011;6815;59.336;17.998;2023-02-26T00:59:22;2.73;;;0.90;;
13485;SDS011;6815;59.336;17.998;2023-02-26T01:01:48;2.97;;;1.03;;
13485;SDS011;6815;59.336;17.998;2023-02-26T01:04:15;2.43;;;1.00;;
13485;SDS011;6815;59.336;17.998;2023-02-26T01:06:45;4.50;;;1.30;;
13485;SDS011;6815;59.336;17.998;2023-02-26T01:09:23;2.67;;;0.80;;
13485;SDS011;6815;59.336;17.998;2023-02-26T01:12:01;2.50;;;0.93;;
13485;SDS011;6815;59.336;17.998;2023-02-26T01:14:30;1.63;;;0.90;;
13485;SDS011;6815;59.336;17.998;2023-02-26T01:17:01;1.70;;;0.87;;
13485;SDS011;6815;59.336;17.998;2023-02-26T01:19:47;3.57;;;0.87;;
13485;SDS011;6815;59.336;17.998;2023-02-26T01:22:20;3.07;;;0.90;;
13485;SDS011;6815;59.336;17.998;2023-02-26T01:24:51;2.83;;;0.80;;
13485;SDS011;6815;59.336;17.998;2023-02-26T01:27:23;3.10;;;0.80;;
13485;SDS011;6815;59.336;17.998;2023-02-26T01:29:50;0.77;;;0.57;;
13485;SDS011;6815;59.336;17.998;2023-02-26T01:35:23;3.37;;;1.10;;
13485;SDS011;6815;59.336;17.998;2023-02-26T01:38:03;2.27;;;0.80;;
13485;SDS011;6815;59.336;17.998;2023-02-26T01:43:27;1.47;;;1.03;;
13485;SDS011;6815;59.336;17.998;2023-02-26T01:48:55;2.63;;;1.03;;
13485;SDS011;6815;59.336;17.998;2023-02-26T01:54:12;1.17;;;0.70;;
13485;SDS011;6815;59.336;17.998;2023-02-26T01:56:38;1.90;;;0.90;;
13485;SDS011;6815;59.336;17.998;2023-02-26T01:59:06;4.40;;;1.10;;
13485;SDS011;6815;59.336;17.998;2023-02-26T02:01:37;2.57;;;1.07;;
13485;SDS011;6815;59.336;17.998;2023-02-26T02:04:04;1.33;;;1.00;;
13485;SDS011;6815;59.336;17.998;2023-02-26T02:06:34;3.83;;;1.10;;
13485;SDS011;6815;59.336;17.998;2023-02-26T02:09:01;1.83;;;0.80;;
13485;SDS011;6815;59.336;17.998;2023-02-26T02:11:28;2.20;;;0.90;;
13485;SDS011;6815;59.336;17.998;2023-02-26T02:28:05;1.63;;;0.73;;
13485;SDS011;6815;59.336;17.998;2023-02-26T02:33:33;2.30;;;0.77;;
13485;SDS011;6815;59.336;17.998;2023-02-26T02:36:25;1.50;;;0.60;;
13485;SDS011;6815;59.336;17.998;2023-02-26T02:38:54;1.03;;;0.63;;
13485;SDS011;6815;59.336;17.998;2023-02-26T02:41:26;3.53;;;1.10;;
13485;SDS011;6815;59.336;17.998;2023-02-26T02:44:02;2.67;;;0.90;;
13485;SDS011;6815;59.336;17.998;2023-02-26T02:46:31;3.30;;;0.90;;
13485;SDS011;6815;59.336;17.998;2023-02-26T02:49:02;2.67;;;0.80;;
13485;SDS011;6815;59.336;17.998;2023-02-26T02:51:32;1.97;;;0.60;;
13485;SDS011;6815;59.336;17.998;2023-02-26T02:57:26;1.00;;;0.80;;
13485;SDS011;6815;59.336;17.998;2023-02-26T03:00:00;1.70;;;0.77;;
13485;SDS011;6815;59.336;17.998;2023-02-26T03:02:42;1.93;;;0.70;;
13485;SDS011;6815;59.336;17.998;2023-02-26T03:05:16;2.20;;;0.77;;
13485;SDS011;6815;59.336;17.998;2023-02-26T03:07:58;2.47;;;0.80;;
13485;SDS011;6815;59.336;17.998;2023-02-26T03:10:28;1.30;;;0.60;;
13485;SDS011;6815;59.336;17.998;2023-02-26T03:12:54;1.97;;;0.83;;
13485;SDS011;6815;59.336;17.998;2023-02-26T03:15:23;2.33;;;0.70;;
13485;SDS011;6815;59.336;17.998;2023-02-26T03:17:59;1.93;;;0.90;;
13485;SDS011;6815;59.336;17.998;2023-02-26T03:20:44;1.67;;;0.80;;
13485;SDS011;6815;59.336;17.998;2023-02-26T03:23:21;0.80;;;0.60;;
13485;SDS011;6815;59.336;17.998;2023-02-26T03:26:15;2.10;;;0.80;;
13485;SDS011;6815;59.336;17.998;2023-02-26T03:28:52;2.17;;;0.50;;
13485;SDS011;6815;59.336;17.998;2023-02-26T03:31:30;2.03;;;0.70;;
13485;SDS011;6815;59.336;17.998;2023-02-26T03:34:05;1.77;;;0.87;;
13485;SDS011;6815;59.336;17.998;2023-02-26T03:37:39;3.63;;;0.80;;
13485;SDS011;6815;59.336;17.998;2023-02-26T03:39:46;1.80;;;0.60;;
13485;SDS011;6815;59.336;17.998;2023-02-26T03:42:26;2.00;;;0.90;;
13485;SDS011;6815;59.336;17.998;2023-02-26T03:45:08;3.60;;;0.80;;
13485;SDS011;6815;59.336;17.998;2023-02-26T03:47:38;2.00;;;0.90;;
13485;SDS011;6815;59.336;17.998;2023-02-26T03:50:07;4.47;;;1.20;;
13485;SDS011;6815;59.336;17.998;2023-02-26T03:52:38;1.67;;;0.70;;
13485;SDS011;6815;59.336;17.998;2023-02-26T03:57:41;3.63;;;0.70;;
13485;SDS011;6815;59.336;17.998;2023-02-26T04:00:07;3.00;;;0.70;;
13485;SDS011;6815;59.336;17.998;2023-02-26T04:03:21;3.10;;;0.90;;
13485;SDS011;6815;59.336;17.998;2023-02-26T04:05:34;1.73;;;0.63;;
13485;SDS011;6815;59.336;17.998;2023-02-26T04:08:03;1.93;;;0.80;;
13485;SDS011;6815;59.336;17.998;2023-02-26T04:13:18;2.83;;;1.00;;
13485;SDS011;6815;59.336;17.998;2023-02-26T04:15:43;1.20;;;0.70;;
13485;SDS011;6815;59.336;17.998;2023-02-26T04:18:09;3.03;;;0.83;;
13485;SDS011;6815;59.336;17.998;2023-02-26T04:20:34;1.57;;;0.67;;
13485;SDS011;6815;59.336;17.998;2023-02-26T04:23:00;2.17;;;0.90;;
13485;SDS011;6815;59.336;17.998;2023-02-26T04:25:25;1.80;;;0.60;;
13485;SDS011;6815;59.336;17.998;2023-02-26T04:27:50;0.93;;;0.70;;
13485;SDS011;6815;59.336;17.998;2023-02-26T04:30:16;1.13;;;0.50;;
13485;SDS011;6815;59.336;17.998;2023-02-26T04:32:41;1.47;;;0.90;;
13485;SDS011;6815;59.336;17.998;2023-02-26T04:35:07;1.60;;;0.50;;
13485;SDS011;6815;59.336;17.998;2023-02-26T04:37:33;2.90;;;0.80;;
13485;SDS011;6815;59.336;17.998;2023-02-26T04:39:58;2.20;;;0.90;;
13485;SDS011;6815;59.336;17.998;2023-02-26T04:42:24;2.30;;;0.70;;
13485;SDS011;6815;59.336;17.998;2023-02-26T04:44:49;3.30;;;0.87;;
13485;SDS011;6815;59.336;17.998;2023-02-26T04:47:14;2.90;;;0.90;;
13485;SDS011;6815;59.336;17.998;2023-02-26T04:49:40;1.73;;;0.83;;
13485;SDS011;6815;59.336;17.998;2023-02-26T04:52:05;1.30;;;0.60;;
13485;SDS011;6815;59.336;17.998;2023-02-26T04:54:31;1.60;;;0.67;;
13485;SDS011;6815;59.336;17.998;2023-02-26T04:56:56;1.47;;;0.67;;
13485;SDS011;6815;59.336;17.998;2023-02-26T04:59:21;1.27;;;0.80;;
13485;SDS011;6815;59.336;17.998;2023-02-26T05:01:47;2.47;;;0.60;;
13485;SDS011;6815;59.336;17.998;2023-02-26T05:04:13;1.50;;;0.73;;
13485;SDS011;6815;59.336;17.998;2023-02-26T05:06:38;2.17;;;0.90;;
13485;SDS011;6815;59.336;17.998;2023-02-26T05:09:04;1.43;;;0.60;;
13485;SDS011;6815;59.336;17.998;2023-02-26T05:11:30;1.30;;;0.60;;
13485;SDS011;6815;59.336;17.998;2023-02-26T05:13:55;1.83;;;0.77;;
13485;SDS011;6815;59.336;17.998;2023-02-26T05:16:21;1.67;;;0.60;;
13485;SDS011;6815;59.336;17.998;2023-02-26T05:18:46;2.33;;;0.70;;
13485;SDS011;6815;59.336;17.998;2023-02-26T05:21:12;1.20;;;0.90;;
13485;SDS011;6815;59.336;17.998;2023-02-26T05:23:37;1.50;;;0.50;;
13485;SDS011;6815;59.336;17.998;2023-02-26T05:26:03;1.87;;;0.77;;
13485;SDS011;6815;59.336;17.998;2023-02-26T05:28:29;1.10;;;0.80;;
13485;SDS011;6815;59.336;17.998;2023-02-26T05:30:55;2.00;;;0.70;;
13485;SDS011;6815;59.336;17.998;2023-02-26T05:33:22;2.20;;;0.67;;
13485;SDS011;6815;59.336;17.998;2023-02-26T05:35:48;3.17;;;0.83;;
13485;SDS011;6815;59.336;17.998;2023-02-26T05:38:13;1.93;;;0.53;;
13485;SDS011;6815;59.336;17.998;2023-02-26T05:40:39;1.83;;;0.80;;
13485;SDS011;6815;59.336;17.998;2023-02-26T05:43:05;1.00;;;0.60;;
13485;SDS011;6815;59.336;17.998;2023-02-26T05:45:30;2.23;;;0.50;;
13485;SDS011;6815;59.336;17.998;2023-02-26T05:47:55;1.30;;;0.60;;
13485;SDS011;6815;59.336;17.998;2023-02-26T05:50:21;1.60;;;0.73;;
13485;SDS011;6815;59.336;17.998;2023-02-26T05:52:46;1.57;;;0.70;;
13485;SDS011;6815;59.336;17.998;2023-02-26T05:55:12;1.57;;;0.50;;
13485;SDS011;6815;59.336;17.998;2023-02-26T05:57:37;2.53;;;0.70;;
13485;SDS011;6815;59.336;17.998;2023-02-26T06:00:04;1.70;;;0.73;;
13485;SDS011;6815;59.336;17.998;2023-02-26T06:02:31;1.30;;;0.70;;
13485;SDS011;6815;59.336;17.998;2023-02-26T06:04:56;0.83;;;0.60;;
13485;SDS011;6815;59.336;17.998;2023-02-26T06:07:21;0.93;;;0.60;;
13485;SDS011;6815;59.336;17.998;2023-02-26T06:09:48;1.47;;;0.70;;
13485;SDS011;6815;59.336;17.998;2023-02-26T06:12:14;1.80;;;0.73;;
13485;SDS011;6815;59.336;17.998;2023-02-26T06:14:39;2.53;;;0.73;;
13485;SDS011;6815;59.336;17.998;2023-02-26T06:17:04;1.30;;;0.70;;
13485;SDS011;6815;59.336;17.998;2023-02-26T06:19:30;1.87;;;1.03;;
13485;SDS011;6815;59.336;17.998;2023-02-26T06:21:56;1.30;;;0.57;;
13485;SDS011;6815;59.336;17.998;2023-02-26T06:24:22;3.37;;;0.70;;
13485;SDS011;6815;59.336;17.998;2023-02-26T06:26:48;1.77;;;0.63;;
13485;SDS011;6815;59.336;17.998;2023-02-26T06:29:13;1.80;;;0.60;;
13485;SDS011;6815;59.336;17.998;2023-02-26T06:31:38;0.70;;;0.70;;
13485;SDS011;6815;59.336;17.998;2023-02-26T06:34:04;1.13;;;0.67;;
13485;SDS011;6815;59.336;17.998;2023-02-26T06:36:29;1.17;;;0.57;;
13485;SDS011;6815;59.336;17.998;2023-02-26T06:38:55;1.30;;;0.60;;
13485;SDS011;6815;59.336;17.998;2023-02-26T06:41:21;1.87;;;0.80;;
13485;SDS011;6815;59.336;17.998;2023-02-26T06:43:46;0.63;;;0.50;;
13485;SDS011;6815;59.336;17.998;2023-02-26T06:46:12;2.27;;;0.60;;
13485;SDS011;6815;59.336;17.998;2023-02-26T06:48:37;1.57;;;0.60;;
13485;SDS011;6815;59.336;17.998;2023-02-26T06:51:02;1.73;;;0.60;;
13485;SDS011;6815;59.336;17.998;2023-02-26T06:53:28;1.00;;;0.60;;
13485;SDS011;6815;59.336;17.998;2023-02-26T06:55:53;1.23;;;0.60;;
13485;SDS011;6815;59.336;17.998;2023-02-26T06:58:19;1.80;;;0.50;;
13485;SDS011;6815;59.336;17.998;2023-02-26T07:00:44;1.53;;;0.70;;
13485;SDS011;6815;59.336;17.998;2023-02-26T07:03:11;1.13;;;0.63;;
13485;SDS011;6815;59.336;17.998;2023-02-26T07:05:38;1.10;;;0.50;;
13485;SDS011;6815;59.336;17.998;2023-02-26T07:08:03;0.80;;;0.80;;
13485;SDS011;6815;59.336;17.998;2023-02-26T07:10:30;2.77;;;0.60;;
13485;SDS011;6815;59.336;17.998;2023-02-26T07:12:57;1.90;;;0.70;;
13485;SDS011;6815;59.336;17.998;2023-02-26T07:15:23;1.40;;;0.60;;
13485;SDS011;6815;59.336;17.998;2023-02-26T07:17:48;0.63;;;0.50;;
13485;SDS011;6815;59.336;17.998;2023-02-26T07:20:14;2.37;;;0.70;;
13485;SDS011;6815;59.336;17.998;2023-02-26T07:22:39;1.73;;;0.70;;
13485;SDS011;6815;59.336;17.998;2023-02-26T07:25:05;0.80;;;0.43;;
13485;SDS011;6815;59.336;17.998;2023-02-26T07:27:31;1.07;;;0.50;;
13485;SDS011;6815;59.336;17.998;2023-02-26T07:29:57;2.73;;;0.77;;
13485;SDS011;6815;59.336;17.998;2023-02-26T07:32:23;1.87;;;0.70;;
13485;SDS011;6815;59.336;17.998;2023-02-26T07:34:50;2.10;;;0.70;;
13485;SDS011;6815;59.336;17.998;2023-02-26T07:37:16;1.23;;;0.70;;
13485;SDS011;6815;59.336;17.998;2023-02-26T07:39:41;2.80;;;0.70;;
13485;SDS011;6815;59.336;17.998;2023-02-26T07:42:07;1.23;;;0.53;;
13485;SDS011;6815;59.336;17.998;2023-02-26T07:44:33;2.87;;;0.70;;
13485;SDS011;6815;59.336;17.998;2023-02-26T07:46:59;2.93;;;0.90;;
13485;SDS011;6815;59.336;17.998;2023-02-26T07:49:25;1.53;;;0.60;;
13485;SDS011;6815;59.336;17.998;2023-02-26T07:51:50;1.37;;;0.73;;
13485;SDS011;6815;59.336;17.998;2023-02-26T07:54:16;2.70;;;0.70;;
13485;SDS011;6815;59.336;17.998;2023-02-26T07:56:41;2.37;;;0.80;;
13485;SDS011;6815;59.336;17.998;2023-02-26T07:59:07;2.03;;;0.63;;
13485;SDS011;6815;59.336;17.998;2023-02-26T08:01:33;2.70;;;0.60;;
13485;SDS011;6815;59.336;17.998;2023-02-26T08:03:59;1.67;;;0.80;;
13485;SDS011;6815;59.336;17.998;2023-02-26T08:06:25;0.90;;;0.70;;
13485;SDS011;6815;59.336;17.998;2023-02-26T08:08:51;2.60;;;0.80;;
13485;SDS011;6815;59.336;17.998;2023-02-26T08:11:18;4.27;;;0.90;;
13485;SDS011;6815;59.336;17.998;2023-02-26T08:13:43;2.47;;;0.97;;
13485;SDS011;6815;59.336;17.998;2023-02-26T08:16:08;1.03;;;0.50;;
13485;SDS011;6815;59.336;17.998;2023-02-26T08:18:35;2.43;;;0.90;;
13485;SDS011;6815;59.336;17.998;2023-02-26T08:21:03;1.40;;;0.50;;
13485;SDS011;6815;59.336;17.998;2023-02-26T08:23:32;0.50;;;0.50;;
13485;SDS011;6815;59.336;17.998;2023-02-26T08:26:02;2.83;;;0.60;;
13485;SDS011;6815;59.336;17.998;2023-02-26T08:28:28;2.27;;;0.60;;
13485;SDS011;6815;59.336;17.998;2023-02-26T08:30:54;1.00;;;0.80;;
13485;SDS011;6815;59.336;17.998;2023-02-26T08:33:21;2.93;;;0.73;;
13485;SDS011;6815;59.336;17.998;2023-02-26T08:35:47;2.50;;;0.63;;
13485;SDS011;6815;59.336;17.998;2023-02-26T08:38:13;1.40;;;0.60;;
13485;SDS011;6815;59.336;17.998;2023-02-26T08:40:38;2.03;;;0.90;;
13485;SDS011;6815;59.336;17.998;2023-02-26T08:43:04;2.47;;;0.50;;
13485;SDS011;6815;59.336;17.998;2023-02-26T08:45:29;1.43;;;0.70;;
13485;SDS011;6815;59.336;17.998;2023-02-26T08:47:55;3.17;;;0.80;;
13485;SDS011;6815;59.336;17.998;2023-02-26T08:50:20;2.00;;;0.63;;
13485;SDS011;6815;59.336;17.998;2023-02-26T08:52:46;0.73;;;0.57;;
13485;SDS011;6815;59.336;17.998;2023-02-26T08:55:12;1.73;;;0.50;;
13485;SDS011;6815;59.336;17.998;2023-02-26T08:57:37;3.60;;;0.70;;
13485;SDS011;6815;59.336;17.998;2023-02-26T09:00:04;0.77;;;0.57;;
13485;SDS011;6815;59.336;17.998;2023-02-26T09:02:37;2.97;;;1.20;;
13485;SDS011;6815;59.336;17.998;2023-02-26T09:05:02;1.17;;;0.60;;
13485;SDS011;6815;59.336;17.998;2023-02-26T09:07:47;1.73;;;0.70;;
13485;SDS011;6815;59.336;17.998;2023-02-26T09:10:13;1.93;;;0.60;;
13485;SDS011;6815;59.336;17.998;2023-02-26T09:12:40;3.13;;;0.70;;
13485;SDS011;6815;59.336;17.998;2023-02-26T09:15:08;0.67;;;0.50;;
13485;SDS011;6815;59.336;17.998;2023-02-26T09:17:35;3.23;;;0.80;;
13485;SDS011;6815;59.336;17.998;2023-02-26T09:20:01;1.60;;;0.63;;
13485;SDS011;6815;59.336;17.998;2023-02-26T09:22:28;0.90;;;0.50;;
13485;SDS011;6815;59.336;17.998;2023-02-26T09:24:54;2.50;;;0.60;;
13485;SDS011;6815;59.336;17.998;2023-02-26T09:27:21;0.80;;;0.60;;
13485;SDS011;6815;59.336;17.998;2023-02-26T09:29:46;1.30;;;0.57;;
13485;SDS011;6815;59.336;17.998;2023-02-26T09:32:14;0.73;;;0.40;;
13485;SDS011;6815;59.336;17.998;2023-02-26T09:34:42;2.77;;;0.73;;
13485;SDS011;6815;59.336;17.998;2023-02-26T09:37:08;1.80;;;0.60;;
13485;SDS011;6815;59.336;17.998;2023-02-26T09:39:34;2.70;;;0.73;;
13485;SDS011;6815;59.336;17.998;2023-02-26T09:42:12;3.80;;;0.80;;
13485;SDS011;6815;59.336;17.998;2023-02-26T09:44:52;1.20;;;0.60;;
13485;SDS011;6815;59.336;17.998;2023-02-26T09:47:23;4.30;;;0.73;;
13485;SDS011;6815;59.336;17.998;2023-02-26T09:52:39;3.97;;;0.83;;
13485;SDS011;6815;59.336;17.998;2023-02-26T09:55:10;1.87;;;0.70;;
13485;SDS011;6815;59.336;17.998;2023-02-26T09:57:43;1.10;;;0.60;;
13485;SDS011;6815;59.336;17.998;2023-02-26T10:00:17;2.20;;;0.60;;
13485;SDS011;6815;59.336;17.998;2023-02-26T10:11:36;3.33;;;0.80;;
13485;SDS011;6815;59.336;17.998;2023-02-26T10:14:11;2.67;;;0.60;;
13485;SDS011;6815;59.336;17.998;2023-02-26T10:16:48;2.93;;;0.80;;
13485;SDS011;6815;59.336;17.998;2023-02-26T10:19:18;2.77;;;0.83;;
13485;SDS011;6815;59.336;17.998;2023-02-26T10:21:49;4.20;;;0.80;;
13485;SDS011;6815;59.336;17.998;2023-02-26T10:24:21;3.63;;;0.77;;
13485;SDS011;6815;59.336;17.998;2023-02-26T10:26:56;2.97;;;0.97;;
13485;SDS011;6815;59.336;17.998;2023-02-26T10:29:31;3.67;;;0.80;;
13485;SDS011;6815;59.336;17.998;2023-02-26T10:32:08;1.40;;;0.70;;
13485;SDS011;6815;59.336;17.998;2023-02-26T10:34:56;2.47;;;0.73;;
13485;SDS011;6815;59.336;17.998;2023-02-26T10:40:28;4.90;;;0.90;;
13485;SDS011;6815;59.336;17.998;2023-02-26T10:43:23;1.50;;;0.80;;
13485;SDS011;6815;59.336;17.998;2023-02-26T10:51:50;3.40;;;0.80;;
13485;SDS011;6815;59.336;17.998;2023-02-26T10:54:23;1.33;;;0.70;;
13485;SDS011;6815;59.336;17.998;2023-02-26T10:57:01;1.57;;;0.80;;
13485;SDS011;6815;59.336;17.998;2023-02-26T10:59:28;1.67;;;0.80;;
13485;SDS011;6815;59.336;17.998;2023-02-26T11:01:53;1.87;;;0.90;;
13485;SDS011;6815;59.336;17.998;2023-02-26T11:04:20;4.00;;;0.90;;
13485;SDS011;6815;59.336;17.998;2023-02-26T11:06:48;5.67;;;1.10;;
13485;SDS011;6815;59.336;17.998;2023-02-26T11:09:22;2.07;;;1.10;;
13485;SDS011;6815;59.336;17.998;2023-02-26T11:11:52;3.93;;;1.00;;
13485;SDS011;6815;59.336;17.998;2023-02-26T11:14:20;3.73;;;1.07;;
13485;SDS011;6815;59.336;17.998;2023-02-26T11:16:52;2.70;;;0.80;;
13485;SDS011;6815;59.336;17.998;2023-02-26T11:19:22;2.70;;;0.80;;
13485;SDS011;6815;59.336;17.998;2023-02-26T11:22:00;4.07;;;0.70;;
13485;SDS011;6815;59.336;17.998;2023-02-26T11:24:33;2.53;;;0.77;;
13485;SDS011;6815;59.336;17.998;2023-02-26T11:27:02;3.63;;;1.00;;
13485;SDS011;6815;59.336;17.998;2023-02-26T11:29:40;5.07;;;1.10;;
13485;SDS011;6815;59.336;17.998;2023-02-26T11:32:15;4.27;;;0.70;;
13485;SDS011;6815;59.336;17.998;2023-02-26T11:34:58;2.43;;;0.80;;
13485;SDS011;6815;59.336;17.998;2023-02-26T11:37:30;3.00;;;0.90;;
13485;SDS011;6815;59.336;17.998;2023-02-26T11:40:04;4.37;;;0.90;;
13485;SDS011;6815;59.336;17.998;2023-02-26T11:42:39;2.17;;;0.90;;
13485;SDS011;6815;59.336;17.998;2023-02-26T11:45:12;1.73;;;0.70;;
13485;SDS011;6815;59.336;17.998;2023-02-26T11:47:40;2.43;;;0.70;;
13485;SDS011;6815;59.336;17.998;2023-02-26T11:50:12;2.37;;;0.93;;
13485;SDS011;6815;59.336;17.998;2023-02-26T11:52:43;2.37;;;0.80;;
13485;SDS011;6815;59.336;17.998;2023-02-26T11:57:57;2.40;;;0.80;;
13485;SDS011;6815;59.336;17.998;2023-02-26T12:02:59;3.07;;;0.93;;
13485;SDS011;6815;59.336;17.998;2023-02-26T12:05:28;2.03;;;0.57;;
13485;SDS011;6815;59.336;17.998;2023-02-26T12:07:55;1.40;;;0.60;;
13485;SDS011;6815;59.336;17.998;2023-02-26T12:10:29;3.73;;;1.13;;
13485;SDS011;6815;59.336;17.998;2023-02-26T12:13:08;1.90;;;0.60;;
13485;SDS011;6815;59.336;17.998;2023-02-26T12:15:54;2.87;;;0.70;;
13485;SDS011;6815;59.336;17.998;2023-02-26T12:18:46;4.30;;;0.83;;
13485;SDS011;6815;59.336;17.998;2023-02-26T12:35:30;1.47;;;0.67;;
13485;SDS011;6815;59.336;17.998;2023-02-26T12:38:24;1.63;;;0.80;;
13485;SDS011;6815;59.336;17.998;2023-02-26T12:41:14;1.60;;;0.57;;
13485;SDS011;6815;59.336;17.998;2023-02-26T12:43:52;0.80;;;0.50;;
13485;SDS011;6815;59.336;17.998;2023-02-26T12:49:07;0.40;;;0.40;;
13485;SDS011;6815;59.336;17.998;2023-02-26T12:51:56;2.10;;;0.50;;
13485;SDS011;6815;59.336;17.998;2023-02-26T13:00:34;2.27;;;0.60;;
13485;SDS011;6815;59.336;17.998;2023-02-26T13:14:21;2.17;;;0.50;;
13485;SDS011;6815;59.336;17.998;2023-02-26T13:17:00;1.23;;;0.60;;
13485;SDS011;6815;59.336;17.998;2023-02-26T13:24:40;2.30;;;0.90;;
13485;SDS011;6815;59.336;17.998;2023-02-26T13:27:09;1.90;;;1.00;;
13485;SDS011;6815;59.336;17.998;2023-02-26T13:29:40;2.67;;;1.00;;
13485;SDS011;6815;59.336;17.998;2023-02-26T13:32:24;2.80;;;0.87;;
13485;SDS011;6815;59.336;17.998;2023-02-26T13:35:06;1.40;;;0.60;;
13485;SDS011;6815;59.336;17.998;2023-02-26T13:37:48;2.27;;;0.70;;
13485;SDS011;6815;59.336;17.998;2023-02-26T13:40:42;1.37;;;0.60;;
13485;SDS011;6815;59.336;17.998;2023-02-26T13:43:17;1.63;;;0.60;;
13485;SDS011;6815;59.336;17.998;2023-02-26T13:46:15;2.20;;;0.70;;
13485;SDS011;6815;59.336;17.998;2023-02-26T13:49:00;1.83;;;0.80;;
13485;SDS011;6815;59.336;17.998;2023-02-26T13:51:44;3.00;;;0.50;;
13485;SDS011;6815;59.336;17.998;2023-02-26T13:56:47;2.00;;;0.73;;
13485;SDS011;6815;59.336;17.998;2023-02-26T14:02:01;2.47;;;0.50;;
13485;SDS011;6815;59.336;17.998;2023-02-26T14:04:50;4.83;;;0.63;;
13485;SDS011;6815;59.336;17.998;2023-02-26T14:07:26;1.97;;;0.43;;
13485;SDS011;6815;59.336;17.998;2023-02-26T14:10:34;1.57;;;0.67;;
13485;SDS011;6815;59.336;17.998;2023-02-26T14:13:18;1.07;;;0.60;;
13485;SDS011;6815;59.336;17.998;2023-02-26T14:15:53;1.87;;;0.67;;
13485;SDS011;6815;59.336;17.998;2023-02-26T14:21:48;1.60;;;1.00;;
13485;SDS011;6815;59.336;17.998;2023-02-26T14:24:42;2.00;;;0.83;;
13485;SDS011;6815;59.336;17.998;2023-02-26T14:32:49;2.63;;;0.80;;
13485;SDS011;6815;59.336;17.998;2023-02-26T14:35:20;4.00;;;0.90;;
13485;SDS011;6815;59.336;17.998;2023-02-26T14:40:48;1.30;;;0.77;;
13485;SDS011;6815;59.336;17.998;2023-02-26T14:43:43;5.90;;;0.90;;
13485;SDS011;6815;59.336;17.998;2023-02-26T14:46:15;1.77;;;0.90;;
13485;SDS011;6815;59.336;17.998;2023-02-26T14:48:42;1.93;;;0.93;;
13485;SDS011;6815;59.336;17.998;2023-02-26T14:58:40;0.73;;;0.60;;
13485;SDS011;6815;59.336;17.998;2023-02-26T15:07:07;9.73;;;0.93;;
13485;SDS011;6815;59.336;17.998;2023-02-26T15:10:31;3.10;;;1.00;;
13485;SDS011;6815;59.336;17.998;2023-02-26T15:15:52;1.63;;;0.80;;
13485;SDS011;6815;59.336;17.998;2023-02-26T15:18:28;1.93;;;0.90;;
13485;SDS011;6815;59.336;17.998;2023-02-26T15:23:43;2.10;;;0.90;;
13485;SDS011;6815;59.336;17.998;2023-02-26T15:26:25;2.40;;;0.93;;
13485;SDS011;6815;59.336;17.998;2023-02-26T15:28:59;1.33;;;0.63;;
13485;SDS011;6815;59.336;17.998;2023-02-26T15:31:41;4.80;;;0.97;;
13485;SDS011;6815;59.336;17.998;2023-02-26T15:34:25;3.03;;;0.83;;
13485;SDS011;6815;59.336;17.998;2023-02-26T15:36:51;1.83;;;0.77;;
13485;SDS011;6815;59.336;17.998;2023-02-26T15:39:18;2.47;;;0.97;;
13485;SDS011;6815;59.336;17.998;2023-02-26T15:41:47;2.57;;;0.80;;
13485;SDS011;6815;59.336;17.998;2023-02-26T15:44:16;0.60;;;0.53;;
13485;SDS011;6815;59.336;17.998;2023-02-26T15:46:46;2.43;;;0.70;;
13485;SDS011;6815;59.336;17.998;2023-02-26T15:49:18;2.00;;;0.70;;
13485;SDS011;6815;59.336;17.998;2023-02-26T15:51:49;2.57;;;0.87;;
13485;SDS011;6815;59.336;17.998;2023-02-26T15:54:18;1.43;;;0.50;;
13485;SDS011;6815;59.336;17.998;2023-02-26T15:56:47;1.67;;;0.60;;
13485;SDS011;6815;59.336;17.998;2023-02-26T15:59:17;2.33;;;0.70;;
13485;SDS011;6815;59.336;17.998;2023-02-26T16:01:46;1.73;;;0.80;;
13485;SDS011;6815;59.336;17.998;2023-02-26T16:04:15;1.17;;;0.60;;
13485;SDS011;6815;59.336;17.998;2023-02-26T16:06:44;1.53;;;0.70;;
13485;SDS011;6815;59.336;17.998;2023-02-26T16:09:17;1.77;;;0.70;;
13485;SDS011;6815;59.336;17.998;2023-02-26T16:12:04;2.47;;;0.63;;
13485;SDS011;6815;59.336;17.998;2023-02-26T16:14:37;2.07;;;0.90;;
13485;SDS011;6815;59.336;17.998;2023-02-26T16:17:05;1.30;;;0.80;;
13485;SDS011;6815;59.336;17.998;2023-02-26T16:19:40;1.73;;;0.87;;
13485;SDS011;6815;59.336;17.998;2023-02-26T16:25:05;2.60;;;0.93;;
13485;SDS011;6815;59.336;17.998;2023-02-26T16:27:31;1.90;;;0.83;;
13485;SDS011;6815;59.336;17.998;2023-02-26T16:29:59;1.90;;;0.53;;
13485;SDS011;6815;59.336;17.998;2023-02-26T16:32:29;1.20;;;0.70;;
13485;SDS011;6815;59.336;17.998;2023-02-26T16:35:07;3.60;;;1.00;;
13485;SDS011;6815;59.336;17.998;2023-02-26T16:37:35;2.00;;;1.07;;
13485;SDS011;6815;59.336;17.998;2023-02-26T16:47:58;1.53;;;0.70;;
13485;SDS011;6815;59.336;17.998;2023-02-26T16:50:29;3.17;;;0.90;;
13485;SDS011;6815;59.336;17.998;2023-02-26T16:55:28;3.83;;;1.37;;
13485;SDS011;6815;59.336;17.998;2023-02-26T16:57:57;4.80;;;1.20;;
13485;SDS011;6815;59.336;17.998;2023-02-26T17:00:26;6.80;;;1.83;;
13485;SDS011;6815;59.336;17.998;2023-02-26T17:03:16;4.50;;;1.60;;
13485;SDS011;6815;59.336;17.998;2023-02-26T17:06:08;4.03;;;1.60;;
13485;SDS011;6815;59.336;17.998;2023-02-26T17:08:46;3.97;;;1.50;;
13485;SDS011;6815;59.336;17.998;2023-02-26T17:11:25;3.77;;;1.77;;
13485;SDS011;6815;59.336;17.998;2023-02-26T17:16:50;3.40;;;1.77;;
13485;SDS011;6815;59.336;17.998;2023-02-26T17:19:16;3.70;;;1.30;;
13485;SDS011;6815;59.336;17.998;2023-02-26T17:21:47;2.00;;;1.40;;
13485;SDS011;6815;59.336;17.998;2023-02-26T17:24:20;2.53;;;1.33;;
13485;SDS011;6815;59.336;17.998;2023-02-26T17:27:02;3.63;;;1.27;;
13485;SDS011;6815;59.336;17.998;2023-02-26T17:29:31;2.67;;;1.40;;
13485;SDS011;6815;59.336;17.998;2023-02-26T17:31:58;3.80;;;1.60;;
13485;SDS011;6815;59.336;17.998;2023-02-26T17:34:24;4.57;;;1.50;;
13485;SDS011;6815;59.336;17.998;2023-02-26T17:36:49;4.40;;;1.20;;
13485;SDS011;6815;59.336;17.998;2023-02-26T17:39:16;3.27;;;1.23;;
13485;SDS011;6815;59.336;17.998;2023-02-26T17:41:42;3.87;;;1.67;;
13485;SDS011;6815;59.336;17.998;2023-02-26T17:44:08;4.37;;;1.50;;
13485;SDS011;6815;59.336;17.998;2023-02-26T17:46:34;3.37;;;1.43;;
13485;SDS011;6815;59.336;17.998;2023-02-26T17:48:59;6.07;;;2.27;;
13485;SDS011;6815;59.336;17.998;2023-02-26T17:51:25;4.57;;;1.63;;
13485;SDS011;6815;59.336;17.998;2023-02-26T17:53:51;4.67;;;1.80;;